Time;durP1;ratioP1;P1;durP2;ratioP2;P2;SDS_P1;SDS_P2;PMS_P1;PMS_P2;Temp;Humidity;BMP_temperature;BMP_pressure;BME280_temperature;BME280_humidity;BME280_pressure;Samples;Min_cycle;Max_cycle;Signal;HPM_P1;HPM_P2
2022/03/19 00:01:05;;;;;;;13.43;12.17;;;8.10;99.90;;;;;;5013416;28;20184;-78
2022/03/19 00:03:31;;;;;;;14.87;10.73;;;8.10;99.90;;;;;;5009066;28;20436;-78
2022/03/19 00:05:57;;;;;;;12.17;11.07;;;8.10;99.90;;;;;;5008581;28;20231;-78
2022/03/19 00:08:23;;;;;;;12.63;10.73;;;8.10;99.90;;;;;;5017528;28;20442;-78
2022/03/19 00:10:50;;;;;;;12.00;10.40;;;8.10;99.90;;;;;;5008863;28;20581;-78
2022/03/19 00:13:16;;;;;;;12.93;9.67;;;8.00;99.90;;;;;;5009571;28;20454;-78
2022/03/19 00:15:41;;;;;;;11.87;10.80;;;8.00;99.90;;;;;;5018857;28;20443;-76
2022/03/19 00:18:07;;;;;;;11.00;10.10;;;8.00;99.90;;;;;;5009096;28;20223;-77
2022/03/19 00:20:36;;;;;;;10.57;9.57;;;8.00;99.90;;;;;;5015869;28;20266;-77
2022/03/19 00:23:02;;;;;;;10.53;9.53;;;7.90;99.90;;;;;;5012825;28;20444;-77
2022/03/19 00:25:27;;;;;;;10.70;9.67;;;7.90;99.90;;;;;;5011012;28;20424;-77
2022/03/19 00:27:53;;;;;;;12.47;11.17;;;7.90;99.90;;;;;;5013723;28;20877;-76
2022/03/19 00:30:18;;;;;;;11.40;10.17;;;7.90;99.90;;;;;;5014543;28;20224;-77
2022/03/19 00:32:44;;;;;;;12.53;11.23;;;7.90;99.90;;;;;;5010166;28;20204;-77
2022/03/19 00:35:10;;;;;;;12.77;10.90;;;7.80;99.90;;;;;;5012080;28;20189;-77
2022/03/19 00:37:46;;;;;;;11.90;10.70;;;7.70;99.90;;;;;;5024277;28;20203;-77
2022/03/19 00:40:14;;;;;;;21.83;17.73;;;7.70;99.90;;;;;;5007860;28;20478;-76
2022/03/19 00:42:41;;;;;;;16.53;12.40;;;7.60;99.90;;;;;;5025100;28;20458;-78
2022/03/19 00:45:08;;;;;;;15.98;11.75;;;7.70;99.90;;;;;;5008145;28;20564;-78
2022/03/19 00:47:34;;;;;;;13.00;11.70;;;7.60;99.90;;;;;;5025251;28;20690;-77
2022/03/19 00:50:00;;;;;;;13.40;11.97;;;7.60;99.90;;;;;;5008081;28;20220;-77
2022/03/19 00:52:26;;;;;;;15.00;11.30;;;7.60;99.90;;;;;;5024703;28;20438;-77
2022/03/19 00:54:51;;;;;;;12.57;11.27;;;7.60;99.90;;;;;;5007860;28;20462;-76
2022/03/19 00:57:17;;;;;;;12.33;11.10;;;7.70;99.90;;;;;;5024642;28;20194;-77
2022/03/19 00:59:42;;;;;;;13.17;11.60;;;7.70;99.90;;;;;;5027587;28;20657;-77
2022/03/19 01:02:08;;;;;;;13.83;11.20;;;7.50;99.90;;;;;;5011223;28;20757;-78
2022/03/19 01:04:34;;;;;;;13.20;11.93;;;7.40;99.90;;;;;;5012040;28;20629;-77
2022/03/19 01:06:59;;;;;;;15.33;10.60;;;7.50;99.90;;;;;;5007792;28;20215;-78
2022/03/19 01:09:25;;;;;;;12.73;11.47;;;7.50;99.90;;;;;;4999787;28;20179;-77
2022/03/19 01:11:51;;;;;;;12.93;11.73;;;7.50;99.90;;;;;;5016082;28;20585;-77
2022/03/19 01:14:17;;;;;;;13.70;11.52;;;7.50;99.90;;;;;;5009333;28;20196;-76
2022/03/19 01:16:42;;;;;;;12.17;10.90;;;7.50;99.90;;;;;;5016020;28;20695;-78
2022/03/19 01:19:08;;;;;;;14.07;12.30;;;7.50;99.90;;;;;;5006014;28;20379;-76
2022/03/19 01:21:35;;;;;;;17.90;12.70;;;9.40;99.90;;;;;;5011001;28;20193;-77
2022/03/19 01:24:02;;;;;;;12.70;11.48;;;7.50;99.90;;;;;;5013766;28;20174;-77
2022/03/19 01:26:28;;;;;;;16.27;11.70;;;7.50;99.90;;;;;;5018204;28;20195;-77
2022/03/19 01:28:53;;;;;;;12.40;11.30;;;7.50;99.90;;;;;;5012304;28;20807;-76
2022/03/19 01:31:21;;;;;;;17.53;11.77;;;7.40;99.90;;;;;;5015750;28;20228;-77
2022/03/19 01:33:47;;;;;;;16.48;12.32;;;7.40;99.90;;;;;;5005552;28;20714;-76
2022/03/19 01:36:12;;;;;;;11.80;10.70;;;7.30;99.90;;;;;;5011332;28;20189;-77
2022/03/19 01:38:38;;;;;;;13.20;11.87;;;7.30;99.90;;;;;;5006359;28;20272;-77
2022/03/19 01:41:03;;;;;;;15.10;11.40;;;7.40;99.90;;;;;;5008028;28;20195;-78
2022/03/19 01:43:29;;;;;;;13.87;12.47;;;7.00;99.90;;;;;;5007516;28;20207;-76
2022/03/19 01:45:55;;;;;;;13.43;12.03;;;7.40;99.90;;;;;;5009785;28;20235;-76
2022/03/19 01:48:21;;;;;;;13.10;11.80;;;7.30;99.90;;;;;;5008228;28;20197;-77
2022/03/19 01:50:46;;;;;;;13.32;11.90;;;7.20;99.90;;;;;;5006788;28;20216;-77
2022/03/19 01:53:12;;;;;;;12.30;11.10;;;7.10;99.90;;;;;;5009578;28;20193;-76
2022/03/19 01:55:37;;;;;;;13.00;11.90;;;7.00;99.90;;;;;;5017602;28;20184;-76
2022/03/19 01:58:04;;;;;;;16.60;11.90;;;7.00;99.90;;;;;;5003290;28;20692;-77
2022/03/19 02:00:29;;;;;;;14.25;12.73;;;6.90;99.90;;;;;;5011277;28;20251;-78
2022/03/19 02:02:56;;;;;;;13.13;12.03;;;6.70;99.90;;;;;;5017105;28;20564;-77
2022/03/19 02:05:23;;;;;;;14.63;12.60;;;6.70;99.90;;;;;;5008557;28;20188;-77
2022/03/19 02:07:50;;;;;;;12.90;11.60;;;6.70;99.90;;;;;;5022745;28;20195;-77
2022/03/19 02:10:19;;;;;;;13.05;11.75;;;6.80;99.90;;;;;;5018832;28;20482;-77
2022/03/19 02:12:47;;;;;;;13.75;12.35;;;6.50;99.90;;;;;;5011931;28;20250;-77
2022/03/19 02:15:14;;;;;;;14.70;11.43;;;6.60;99.90;;;;;;5012441;28;20200;-77
2022/03/19 02:17:40;;;;;;;17.23;11.45;;;6.70;99.90;;;;;;5023327;28;20430;-77
2022/03/19 02:20:06;;;;;;;13.73;11.30;;;6.70;99.90;;;;;;5006325;28;20562;-77
2022/03/19 02:22:32;;;;;;;15.18;12.10;;;6.60;99.90;;;;;;5017396;28;20908;-77
2022/03/19 02:27:44;;;;;;;15.15;12.15;;;6.30;99.90;;;;;;5008076;28;20202;-77
2022/03/19 02:30:12;;;;;;;17.83;12.43;;;6.40;99.90;;;;;;5005620;28;20552;-77
2022/03/19 02:32:43;;;;;;;12.27;10.93;;;6.30;99.90;;;;;;5013858;28;20200;-77
2022/03/19 02:35:10;;;;;;;15.35;13.45;;;6.20;99.90;;;;;;5004107;28;20556;-78
2022/03/19 02:38:12;;;;;;;15.93;12.68;;;6.20;99.90;;;;;;5017034;28;20714;-78
2022/03/19 02:40:43;;;;;;;16.70;12.85;;;6.20;99.90;;;;;;5009274;28;20748;-78
2022/03/19 02:44:02;;;;;;;19.58;12.52;;;6.10;99.90;;;;;;5015592;28;20185;-78
2022/03/19 02:50:01;;;;;;;15.63;14.13;;;6.30;99.90;;;;;;4998141;28;20222;-77
2022/03/19 02:52:27;;;;;;;14.60;13.20;;;6.10;99.90;;;;;;5014965;28;20593;-78
2022/03/19 02:54:52;;;;;;;18.80;13.00;;;6.10;99.90;;;;;;5009746;28;20203;-77
2022/03/19 02:57:18;;;;;;;16.83;13.73;;;6.20;99.90;;;;;;5013818;28;20185;-76
2022/03/19 02:59:43;;;;;;;14.33;11.57;;;6.30;99.90;;;;;;5020380;28;20192;-77
2022/03/19 03:02:09;;;;;;;14.17;12.67;;;6.20;99.90;;;;;;5010937;28;20275;-77
2022/03/19 03:04:34;;;;;;;14.47;13.13;;;6.10;99.90;;;;;;5011881;28;20283;-77
2022/03/19 03:07:02;;;;;;;15.03;13.13;;;6.10;99.90;;;;;;5005929;28;20248;-77
2022/03/19 03:09:29;;;;;;;14.30;12.80;;;6.10;99.90;;;;;;5004997;28;20184;-77
2022/03/19 03:11:58;;;;;;;17.30;13.55;;;6.20;99.90;;;;;;5012787;28;20673;-77
2022/03/19 03:14:24;;;;;;;15.63;13.30;;;6.30;99.90;;;;;;5016248;28;20554;-76
2022/03/19 03:16:52;;;;;;;16.83;13.75;;;6.10;99.90;;;;;;5009570;28;20570;-77
2022/03/19 03:19:18;;;;;;;15.70;14.10;;;6.10;99.90;;;;;;5009738;28;20215;-77
2022/03/19 03:21:45;;;;;;;13.68;12.38;;;6.20;99.90;;;;;;5017215;28;20180;-77
2022/03/19 03:24:12;;;;;;;15.23;13.75;;;6.20;99.90;;;;;;5009847;28;20189;-77
2022/03/19 03:26:38;;;;;;;18.60;12.27;;;6.20;99.90;;;;;;4986065;28;20169;-77
2022/03/19 03:29:05;;;;;;;15.20;13.40;;;6.30;99.90;;;;;;5007829;28;20284;-77
2022/03/19 03:31:31;;;;;;;14.30;13.00;;;6.20;99.90;;;;;;5007275;28;20282;-77
2022/03/19 03:33:57;;;;;;;14.93;13.30;;;6.10;99.90;;;;;;5019373;28;20192;-77
2022/03/19 03:36:23;;;;;;;15.20;13.70;;;6.20;99.90;;;;;;5008278;28;20553;-77
2022/03/19 03:38:49;;;;;;;13.97;12.60;;;6.20;99.90;;;;;;4658531;28;10000192;-76
2022/03/19 03:41:15;;;;;;;14.83;12.60;;;6.20;99.90;;;;;;5007398;28;20193;-75
2022/03/19 03:43:41;;;;;;;15.52;13.63;;;6.20;99.90;;;;;;5004371;28;20447;-76
2022/03/19 03:46:07;;;;;;;14.03;12.70;;;6.20;99.90;;;;;;5012183;28;20242;-78
2022/03/19 03:48:36;;;;;;;16.00;13.07;;;6.10;99.90;;;;;;5005276;28;20399;-77
2022/03/19 03:51:03;;;;;;;15.90;13.95;;;6.10;99.90;;;;;;5006456;28;20706;-78
2022/03/19 03:53:29;;;;;;;16.40;13.93;;;7.30;99.90;;;;;;5003843;28;20200;-77
2022/03/19 03:55:56;;;;;;;15.77;14.27;;;6.10;99.90;;;;;;5007945;28;20945;-77
2022/03/19 03:58:23;;;;;;;21.25;15.32;;;6.00;99.90;;;;;;5005198;28;20231;-77
2022/03/19 04:00:53;;;;;;;16.37;13.80;;;5.90;99.90;;;;;;5008369;28;20188;-76
2022/03/19 04:03:20;;;;;;;16.15;13.63;;;5.80;99.90;;;;;;5004985;28;20991;-77
2022/03/19 04:05:45;;;;;;;20.42;15.32;;;5.80;99.90;;;;;;5014915;28;20685;-77
2022/03/19 04:08:11;;;;;;;19.17;14.37;;;5.80;99.90;;;;;;5008087;28;20204;-77
2022/03/19 04:10:37;;;;;;;16.53;14.83;;;5.80;99.90;;;;;;5004275;28;20224;-77
2022/03/19 04:13:02;;;;;;;19.50;15.00;;;5.70;99.90;;;;;;5008786;28;20192;-77
2022/03/19 04:15:28;;;;;;;19.80;13.50;;;5.70;99.90;;;;;;5008356;28;20192;-77
2022/03/19 04:17:53;;;;;;;17.80;14.90;;;5.70;99.90;;;;;;5004802;28;20568;-77
2022/03/19 04:20:21;;;;;;;18.80;14.00;;;5.80;99.90;;;;;;5007535;28;20451;-77
2022/03/19 04:22:47;;;;;;;18.63;14.45;;;5.80;99.90;;;;;;5014600;28;20196;-76
2022/03/19 04:25:15;;;;;;;16.63;14.50;;;5.80;99.90;;;;;;5014064;28;20282;-77
2022/03/19 04:27:42;;;;;;;18.70;14.48;;;5.80;99.90;;;;;;5014707;28;20443;-77
2022/03/19 04:30:11;;;;;;;15.02;13.60;;;5.80;99.90;;;;;;5016141;28;20534;-77
2022/03/19 04:32:51;;;;;;;16.45;14.63;;;5.80;99.90;;;;;;5023776;28;20196;-77
2022/03/19 04:38:22;;;;;;;17.30;15.52;;;5.40;99.90;;;;;;5005730;28;20204;-77
2022/03/19 04:40:50;;;;;;;16.55;14.93;;;5.70;99.90;;;;;;5002144;28;20611;-76
2022/03/19 04:43:16;;;;;;;17.95;16.25;;;5.70;99.90;;;;;;5007914;28;20201;-78
2022/03/19 04:45:42;;;;;;;18.47;14.93;;;5.70;99.90;;;;;;5026293;28;20261;-77
2022/03/19 04:48:10;;;;;;;20.77;16.85;;;5.70;99.90;;;;;;5010777;28;20418;-77
2022/03/19 04:50:38;;;;;;;16.35;14.70;;;5.70;99.90;;;;;;5009528;28;20247;-77
2022/03/19 04:53:05;;;;;;;16.63;15.02;;;5.70;99.90;;;;;;5011362;28;20287;-77
2022/03/19 04:55:30;;;;;;;17.58;15.65;;;5.70;99.90;;;;;;5020087;28;20216;-76
2022/03/19 04:57:56;;;;;;;20.80;16.60;;;5.60;99.90;;;;;;5010314;28;20663;-76
2022/03/19 05:00:21;;;;;;;21.80;16.47;;;5.60;99.90;;;;;;5016464;28;20581;-76
2022/03/19 05:02:47;;;;;;;18.37;16.47;;;5.50;99.90;;;;;;5007581;28;20188;-77
2022/03/19 05:05:13;;;;;;;21.87;16.70;;;5.40;99.90;;;;;;5013247;28;20208;-76
2022/03/19 05:07:39;;;;;;;17.97;16.07;;;5.50;99.90;;;;;;5013546;28;20196;-77
2022/03/19 05:12:51;;;;;;;19.05;16.13;;;5.40;99.90;;;;;;5009601;28;20212;-77
2022/03/19 05:15:17;;;;;;;15.47;13.30;;;5.40;99.90;;;;;;5013109;28;20180;-77
2022/03/19 05:17:44;;;;;;;19.48;17.08;;;5.40;99.90;;;;;;5024244;28;20200;-76
2022/03/19 05:20:11;;;;;;;19.58;16.67;;;5.40;99.90;;;;;;5007161;28;20918;-76
2022/03/19 05:22:37;;;;;;;18.63;16.67;;;5.40;99.90;;;;;;5022311;28;20573;-76
2022/03/19 05:25:04;;;;;;;18.23;16.42;;;5.40;99.90;;;;;;5025544;28;20266;-77
2022/03/19 05:27:30;;;;;;;17.70;15.45;;;5.40;99.90;;;;;;5010832;28;20224;-77
2022/03/19 05:29:56;;;;;;;20.73;16.40;;;5.40;99.90;;;;;;5015462;28;20227;-76
2022/03/19 05:32:22;;;;;;;18.23;16.57;;;5.40;99.90;;;;;;5008391;28;20199;-77
2022/03/19 05:34:48;;;;;;;18.23;16.42;;;5.30;99.90;;;;;;5007011;28;20166;-76
2022/03/19 05:37:15;;;;;;;20.40;18.58;;;5.30;99.90;;;;;;5021589;28;20224;-77
2022/03/19 05:39:41;;;;;;;23.27;15.30;;;5.30;99.90;;;;;;5010680;28;20173;-76
2022/03/19 05:42:07;;;;;;;20.13;14.52;;;5.30;99.90;;;;;;5017558;28;20181;-78
2022/03/19 05:44:33;;;;;;;18.10;16.30;;;5.30;99.90;;;;;;4995153;28;20230;-77
2022/03/19 05:46:59;;;;;;;21.57;16.27;;;5.30;99.90;;;;;;5009453;28;20436;-77
2022/03/19 05:49:29;;;;;;;18.90;16.90;;;5.30;99.90;;;;;;5006638;28;20433;-77
2022/03/19 05:51:55;;;;;;;17.25;15.27;;;5.30;99.90;;;;;;5008581;28;20843;-77
2022/03/19 05:54:22;;;;;;;16.33;14.38;;;5.30;99.90;;;;;;5012234;28;20627;-76
2022/03/19 05:56:47;;;;;;;18.17;16.48;;;5.30;99.90;;;;;;5016937;28;20195;-76
2022/03/19 05:59:13;;;;;;;21.17;16.83;;;5.30;99.90;;;;;;5009929;28;20185;-76
2022/03/19 06:01:41;;;;;;;17.20;15.33;;;5.20;99.90;;;;;;5017854;28;20242;-76
2022/03/19 06:04:08;;;;;;;17.27;15.50;;;5.30;99.90;;;;;;5011995;28;20181;-76
2022/03/19 06:06:34;;;;;;;22.02;16.17;;;5.20;99.90;;;;;;5020267;28;20188;-76
2022/03/19 06:08:59;;;;;;;17.30;15.60;;;5.30;99.90;;;;;;5026229;28;20508;-76
2022/03/19 06:11:25;;;;;;;20.40;15.33;;;5.30;99.90;;;;;;5004706;28;20475;-77
2022/03/19 06:13:51;;;;;;;20.80;14.53;;;5.30;99.90;;;;;;5005623;28;20188;-76
2022/03/19 06:16:16;;;;;;;19.07;15.53;;;5.40;99.90;;;;;;5007679;28;20945;-76
2022/03/19 06:18:50;;;;;;;16.63;15.00;;;5.50;99.90;;;;;;5004685;28;20247;-77
2022/03/19 06:21:17;;;;;;;17.83;14.00;;;5.50;99.90;;;;;;4995974;28;20212;-77
2022/03/19 06:23:45;;;;;;;21.52;14.43;;;5.60;99.90;;;;;;5004750;28;20199;-76
2022/03/19 06:26:11;;;;;;;17.03;13.93;;;5.50;99.90;;;;;;5019198;28;20613;-78
2022/03/19 06:28:37;;;;;;;17.50;14.70;;;5.60;99.90;;;;;;5005695;28;20402;-78
2022/03/19 06:31:15;;;;;;;16.40;13.93;;;4.90;99.90;;;;;;5178599;23;20281;-86
2022/03/19 06:33:49;;;;;;;14.75;12.88;;;5.80;99.90;;;;;;4968130;28;20221;-85
2022/03/19 06:39:39;;;;;;;13.02;11.73;;;6.40;99.90;;;;;;4954300;28;20586;-86
2022/03/19 06:42:26;;;;;;;13.33;11.40;;;6.30;99.90;;;;;;4945228;28;20285;-86
2022/03/19 06:45:21;;;;;;;13.90;11.60;;;6.50;99.90;;;;;;4943570;28;20437;-84
2022/03/19 06:47:56;;;;;;;11.70;10.60;;;8.00;99.90;;;;;;4932944;28;20492;-85
2022/03/19 06:51:14;;;;;;;13.90;11.00;;;8.10;99.90;;;;;;5024183;23;20493;-86
2022/03/19 06:56:52;;;;;;;11.73;10.57;;;9.30;99.90;;;;;;5174329;23;20526;-84
2022/03/19 07:02:17;;;;;;;11.60;10.27;;;8.80;99.90;;;;;;5051743;23;20481;-85
2022/03/19 07:04:52;;;;;;;10.90;9.83;;;10.80;99.90;;;;;;4679123;28;9999933;-85
2022/03/19 07:07:53;;;;;;;;;;;;;;;;;;;;;
2022/03/19 07:10:32;;;;;;;11.07;9.50;;;10.50;99.90;;;;;;5050009;28;20809;-84
2022/03/19 07:13:06;;;;;;;11.67;10.43;;;9.90;99.90;;;;;;5047216;28;21023;-83
2022/03/19 07:15:34;;;;;;;11.00;9.90;;;9.80;99.90;;;;;;5044439;28;20431;-84
2022/03/19 07:18:06;;;;;;;10.80;9.97;;;11.60;99.90;;;;;;5049290;28;20767;-83
2022/03/19 07:21:01;;;;;;;11.20;10.17;;;10.00;99.90;;;;;;5033057;28;20546;-85
2022/03/19 07:23:36;;;;;;;9.83;8.90;;;12.20;99.90;;;;;;4957597;28;20475;-84
2022/03/19 07:26:27;;;;;;;;;;;;;;;;;;;;;
2022/03/19 07:29:34;;;;;;;8.50;7.87;;;11.90;99.90;;;;;;5085622;23;20502;-86
2022/03/19 07:32:04;;;;;;;10.93;8.90;;;12.00;99.90;;;;;;5135985;23;20576;-84
2022/03/19 07:35:21;;;;;;;10.87;9.70;;;11.80;99.90;;;;;;5047390;28;20433;-85
2022/03/19 07:38:32;;;;;;;10.00;8.83;;;12.40;99.90;;;;;;5080050;28;20804;-84
2022/03/19 07:44:37;;;;;;;9.20;8.30;;;12.30;99.90;;;;;;5066098;28;20428;-86
2022/03/19 07:47:24;;;;;;;9.63;8.80;;;14.00;99.90;;;;;;5047254;28;20429;-85
2022/03/19 07:50:15;;;;;;;12.87;9.27;;;10.50;99.30;;;;;;5071424;28;20432;-84
2022/03/19 07:53:04;;;;;;;8.90;8.20;;;12.80;99.90;;;;;;5030147;28;20419;-85
2022/03/19 07:59:16;;;;;;;;;;;;;;;;;;;;;
2022/03/19 08:02:08;;;;;;;7.97;7.37;;;14.00;98.40;;;;;;5048002;28;20435;-85
2022/03/19 08:05:19;;;;;;;9.43;8.63;;;13.90;97.60;;;;;;5052841;28;20511;-85
2022/03/19 08:08:38;;;;;;;10.97;7.60;;;14.50;95.40;;;;;;5029305;28;20440;-83
2022/03/19 08:32:44;;;;;;;10.33;9.37;;;16.00;81.20;;;;;;4800170;26;21031;-84
2022/03/19 08:35:10;;;;;;;9.33;8.33;;;16.10;81.20;;;;;;4947293;28;20485;-82
2022/03/19 08:37:36;;;;;;;8.80;8.17;;;17.60;82.00;;;;;;4927579;28;20446;-83
2022/03/19 08:40:15;;;;;;;7.90;7.30;;;16.60;77.80;;;;;;4935027;28;20562;-83
2022/03/19 08:42:42;;;;;;;8.43;7.63;;;16.40;76.70;;;;;;4950724;28;20438;-83
2022/03/19 08:45:11;;;;;;;8.83;8.13;;;17.30;73.60;;;;;;4932641;28;20647;-84
2022/03/19 08:47:45;;;;;;;9.27;7.77;;;15.50;73.10;;;;;;4948631;28;20964;-85
2022/03/19 08:53:36;;;;;;;7.67;7.10;;;16.50;71.40;;;;;;4952121;28;20501;-86
2022/03/19 08:56:29;;;;;;;7.80;7.10;;;16.20;69.80;;;;;;4937669;28;20877;-85
2022/03/19 08:58:58;;;;;;;6.53;5.83;;;16.20;67.00;;;;;;4934369;29;20981;-84
2022/03/19 09:01:26;;;;;;;7.33;6.60;;;14.50;69.40;;;;;;4954337;28;20440;-86
2022/03/19 09:03:55;;;;;;;9.63;7.00;;;15.30;71.00;;;;;;4949366;28;20456;-86
2022/03/19 09:06:37;;;;;;;9.87;7.30;;;16.10;70.10;;;;;;4958546;28;20846;-86
2022/03/19 09:09:07;;;;;;;8.50;7.70;;;16.20;69.00;;;;;;4948688;28;20533;-85
2022/03/19 09:11:37;;;;;;;8.70;7.90;;;18.00;65.40;;;;;;4956391;28;20469;-85
2022/03/19 09:14:09;;;;;;;8.53;7.60;;;16.50;61.30;;;;;;4969141;28;20510;-84
2022/03/19 09:17:17;;;;;;;7.57;6.93;;;17.80;58.40;;;;;;4939084;28;20442;-86
2022/03/19 09:19:49;;;;;;;7.13;6.53;;;18.40;57.70;;;;;;4874315;29;20511;-86
2022/03/19 09:22:18;;;;;;;8.73;6.90;;;19.30;54.20;;;;;;4857405;29;20543;-85
2022/03/19 09:24:48;;;;;;;7.07;6.67;;;18.90;52.60;;;;;;4897368;28;20535;-84
2022/03/19 09:28:01;;;;;;;;;;;;;;;;;;;;;
2022/03/19 09:30:30;;;;;;;6.53;6.23;;;18.20;51.10;;;;;;4944476;28;20787;-84
2022/03/19 09:32:58;;;;;;;10.47;8.10;;;18.90;51.50;;;;;;4961171;28;20548;-85
2022/03/19 09:35:48;;;;;;;7.24;6.68;;;19.40;50.50;;;;;;4621726;28;10000204;-85
2022/03/19 09:38:27;;;;;;;8.00;7.30;;;20.90;48.60;;;;;;5249284;23;20299;-86
2022/03/19 09:41:16;;;;;;;7.67;7.10;;;19.40;46.70;;;;;;4982275;28;20783;-86
2022/03/19 09:43:42;;;;;;;7.40;6.90;;;19.20;45.50;;;;;;4949423;23;20506;-84
2022/03/19 09:46:08;;;;;;;7.77;7.10;;;18.80;46.30;;;;;;4941127;28;20431;-83
2022/03/19 09:48:59;;;;;;;7.27;6.67;;;18.70;46.40;;;;;;4943298;28;20597;-84
2022/03/19 09:51:27;;;;;;;6.70;6.27;;;19.60;46.50;;;;;;4937992;28;20799;-83
2022/03/19 09:53:55;;;;;;;6.87;6.27;;;19.40;44.00;;;;;;4928479;28;20443;-83
2022/03/19 09:56:21;;;;;;;10.73;6.57;;;18.30;44.40;;;;;;4937901;28;20443;-82
2022/03/19 09:58:48;;;;;;;7.17;6.60;;;18.70;44.20;;;;;;4930968;28;20450;-83
2022/03/19 10:01:18;;;;;;;6.30;5.77;;;18.60;43.00;;;;;;4946173;29;20438;-83
2022/03/19 10:03:45;;;;;;;6.03;5.63;;;18.00;41.10;;;;;;4944849;28;20608;-83
2022/03/19 10:09:03;;;;;;;6.00;5.60;;;21.10;40.20;;;;;;4931793;29;20427;-85
2022/03/19 10:11:33;;;;;;;6.97;6.20;;;20.30;40.60;;;;;;4942956;28;20485;-83
2022/03/19 10:14:03;;;;;;;7.90;6.23;;;18.30;41.70;;;;;;4931316;29;20423;-82
2022/03/19 10:16:29;;;;;;;6.63;5.97;;;18.00;40.00;;;;;;4946932;28;20442;-81
2022/03/19 10:18:58;;;;;;;5.53;5.03;;;18.60;40.40;;;;;;4946534;29;20434;-84
2022/03/19 10:21:25;;;;;;;5.90;5.40;;;19.30;39.40;;;;;;4929950;29;20278;-83
2022/03/19 10:23:51;;;;;;;7.73;5.70;;;18.80;39.20;;;;;;4947962;28;20784;-82
2022/03/19 10:26:28;;;;;;;5.23;4.70;;;18.20;38.60;;;;;;4947148;29;20489;-82
2022/03/19 10:29:00;;;;;;;5.20;4.80;;;18.70;37.50;;;;;;4929246;29;20470;-81
2022/03/19 10:31:38;;;;;;;4.87;4.43;;;19.20;37.70;;;;;;4953685;28;20571;-84
2022/03/19 10:34:05;;;;;;;7.63;5.33;;;19.00;36.60;;;;;;4928703;29;20435;-84
2022/03/19 10:36:35;;;;;;;5.20;4.83;;;19.10;36.60;;;;;;4965633;28;20425;-85
2022/03/19 10:39:10;;;;;;;5.17;4.73;;;20.00;36.60;;;;;;4953975;28;20816;-86
2022/03/19 10:41:36;;;;;;;3.87;3.67;;;20.80;36.00;;;;;;4968911;28;20432;-82
2022/03/19 10:44:17;;;;;;;4.10;3.87;;;20.60;34.10;;;;;;4953535;28;21047;-82
2022/03/19 10:46:48;;;;;;;4.17;3.97;;;20.50;33.90;;;;;;4935147;29;20422;-87
2022/03/19 10:49:15;;;;;;;4.53;4.23;;;20.30;33.00;;;;;;4935087;29;20470;-86
2022/03/19 10:51:46;;;;;;;5.30;4.10;;;20.00;33.30;;;;;;4952018;29;20473;-86
2022/03/19 10:54:14;;;;;;;4.30;3.83;;;19.10;33.40;;;;;;4952407;28;20800;-85
2022/03/19 10:56:46;;;;;;;3.23;3.13;;;18.80;32.20;;;;;;4954494;28;20681;-83
2022/03/19 10:59:32;;;;;;;;;;;;;;;;;;;;;
2022/03/19 11:02:03;;;;;;;4.90;4.27;;;19.40;31.70;;;;;;4950490;29;20440;-85
2022/03/19 11:04:30;;;;;;;3.60;3.50;;;20.50;34.80;;;;;;4938942;28;20430;-82
2022/03/19 11:06:59;;;;;;;3.47;3.17;;;20.10;32.50;;;;;;4959999;28;20621;-87
2022/03/19 11:09:28;;;;;;;4.00;3.70;;;20.70;31.70;;;;;;4964641;28;20898;-86
2022/03/19 11:11:59;;;;;;;3.10;2.83;;;21.00;30.20;;;;;;4968460;29;20473;-88
2022/03/19 11:14:30;;;;;;;2.73;2.63;;;22.40;30.20;;;;;;4968471;28;20422;-82
2022/03/19 11:17:23;;;;;;;3.30;2.63;;;22.20;29.50;;;;;;4949694;29;20423;-83
2022/03/19 11:19:53;;;;;;;2.60;2.50;;;21.60;28.90;;;;;;4950332;28;20555;-84
2022/03/19 11:22:21;;;;;;;3.23;2.60;;;20.90;29.20;;;;;;4961478;29;20446;-84
2022/03/19 11:25:08;;;;;;;2.90;2.77;;;18.40;27.80;;;;;;4950909;28;20573;-84
2022/03/19 11:27:49;;;;;;;5.00;2.70;;;20.40;28.50;;;;;;4956445;28;20410;-84
2022/03/19 11:30:33;;;;;;;4.77;3.13;;;19.90;29.00;;;;;;4942614;28;20996;-86
2022/03/19 11:33:17;;;;;;;2.57;2.47;;;20.80;27.90;;;;;;4938004;29;20449;-87
2022/03/19 11:35:48;;;;;;;4.50;2.03;;;19.80;28.20;;;;;;4948585;28;20434;-81
2022/03/19 11:38:15;;;;;;;2.50;1.97;;;19.60;28.10;;;;;;4955002;28;20454;-86
2022/03/19 11:40:54;;;;;;;2.00;2.00;;;20.10;27.80;;;;;;4954203;28;20438;-85
2022/03/19 11:43:32;;;;;;;1.27;1.27;;;19.50;27.70;;;;;;4949509;29;20453;-85
2022/03/19 11:46:09;;;;;;;4.20;1.60;;;19.60;27.80;;;;;;4938669;29;20486;-83
2022/03/19 11:48:35;;;;;;;2.50;1.57;;;19.50;27.70;;;;;;4916725;29;20841;-84
2022/03/19 11:51:29;;;;;;;1.90;1.80;;;20.90;27.70;;;;;;4963941;28;20515;-85
2022/03/19 11:54:02;;;;;;;1.57;1.37;;;21.00;26.90;;;;;;4952258;28;20686;-82
2022/03/19 11:56:44;;;;;;;1.77;1.67;;;20.00;26.90;;;;;;4953877;28;20472;-87
2022/03/19 11:59:15;;;;;;;3.33;1.40;;;19.80;27.50;;;;;;4952238;28;20438;-86
2022/03/19 12:02:14;;;;;;;3.27;2.03;;;19.80;27.70;;;;;;4949456;28;20907;-86
2022/03/19 12:04:47;;;;;;;3.43;1.90;;;20.50;27.50;;;;;;4905881;29;21122;-84
2022/03/19 12:07:41;;;;;;;2.73;2.63;;;20.10;27.60;;;;;;4951027;28;20566;-84
2022/03/19 12:10:18;;;;;;;2.70;2.60;;;19.90;27.50;;;;;;4934601;28;20434;-83
2022/03/19 12:12:45;;;;;;;1.77;1.77;;;20.50;27.80;;;;;;4951187;29;20883;-83
2022/03/19 12:15:29;;;;;;;2.23;2.13;;;20.40;27.40;;;;;;4933209;29;20438;-83
2022/03/19 12:18:27;;;;;;;2.47;2.27;;;21.00;27.90;;;;;;4952001;28;20437;-84
2022/03/19 12:21:16;;;;;;;3.77;2.90;;;20.60;28.00;;;;;;4942499;28;20489;-86
2022/03/19 12:24:11;;;;;;;2.90;2.00;;;21.20;28.60;;;;;;4914514;29;20602;-84
2022/03/19 12:26:40;;;;;;;2.50;2.37;;;20.80;28.10;;;;;;4966724;28;20433;-83
2022/03/19 12:29:07;;;;;;;3.67;3.37;;;22.10;29.40;;;;;;4950352;28;20431;-85
2022/03/19 12:31:41;;;;;;;2.40;2.20;;;20.70;28.60;;;;;;4949571;28;20497;-84
2022/03/19 12:34:13;;;;;;;4.97;3.10;;;20.30;28.00;;;;;;4932064;29;20498;-83
2022/03/19 12:36:39;;;;;;;2.20;2.10;;;20.00;28.00;;;;;;4934308;29;20496;-86
2022/03/19 12:39:08;;;;;;;2.27;2.10;;;21.10;29.40;;;;;;4953829;29;20440;-86
2022/03/19 12:41:36;;;;;;;2.90;2.70;;;22.20;28.90;;;;;;4955219;28;20325;-87
2022/03/19 12:44:10;;;;;;;3.83;3.50;;;22.50;28.60;;;;;;4957645;29;20456;-87
2022/03/19 12:49:18;;;;;;;3.47;2.13;;;22.00;27.00;;;;;;4947762;28;20510;-79
2022/03/19 12:51:47;;;;;;;3.57;1.67;;;21.20;27.80;;;;;;4950649;28;21160;-78
2022/03/19 12:54:28;;;;;;;2.60;2.40;;;20.50;27.30;;;;;;4932646;28;20995;-79
2022/03/19 12:57:07;;;;;;;2.07;1.97;;;21.10;27.90;;;;;;4947439;28;20782;-80
2022/03/19 12:59:33;;;;;;;2.70;1.97;;;20.50;27.70;;;;;;4967725;28;20436;-80
2022/03/19 13:01:58;;;;;;;2.33;2.23;;;19.30;27.80;;;;;;4947428;28;20952;-79
2022/03/19 13:04:27;;;;;;;1.97;1.87;;;20.10;27.70;;;;;;4959683;28;20175;-79
2022/03/19 13:06:54;;;;;;;2.60;2.10;;;20.50;27.60;;;;;;4965066;28;20277;-77
2022/03/19 13:09:34;;;;;;;2.77;2.07;;;21.00;27.50;;;;;;4967854;28;20565;-77
2022/03/19 13:12:05;;;;;;;1.70;1.70;;;19.90;27.40;;;;;;4947800;28;20481;-79
2022/03/19 13:14:32;;;;;;;1.67;1.53;;;20.20;27.70;;;;;;4950524;28;20421;-78
2022/03/19 13:16:58;;;;;;;2.50;2.20;;;20.70;27.90;;;;;;4947502;28;20501;-77
2022/03/19 13:19:25;;;;;;;2.77;2.23;;;20.10;27.50;;;;;;4950016;28;20630;-78
2022/03/19 13:21:52;;;;;;;4.63;2.40;;;20.20;28.00;;;;;;4946526;28;20449;-78
2022/03/19 13:24:25;;;;;;;1.83;1.83;;;20.60;28.00;;;;;;4967592;28;20782;-79
2022/03/19 13:26:52;;;;;;;2.57;2.57;;;21.10;27.80;;;;;;4927191;28;20455;-78
2022/03/19 13:29:32;;;;;;;1.80;1.67;;;21.20;27.40;;;;;;4967349;28;20418;-78
2022/03/19 13:32:03;;;;;;;2.73;1.33;;;21.40;27.00;;;;;;4928997;28;20478;-79
2022/03/19 13:34:29;;;;;;;2.57;2.47;;;20.10;26.50;;;;;;4966738;28;20421;-77
2022/03/19 13:37:06;;;;;;;2.60;2.50;;;19.70;27.00;;;;;;4947101;28;20442;-78
2022/03/19 13:39:37;;;;;;;1.67;1.50;;;18.90;26.70;;;;;;4967387;28;20190;-79
2022/03/19 13:42:07;;;;;;;2.77;2.67;;;19.50;27.10;;;;;;4947655;28;20696;-77
2022/03/19 13:44:46;;;;;;;3.53;3.33;;;20.30;26.60;;;;;;4966673;28;20840;-77
2022/03/19 13:47:18;;;;;;;3.63;3.43;;;20.70;26.90;;;;;;4951075;28;20937;-79
2022/03/19 13:49:47;;;;;;;1.70;1.70;;;21.00;26.40;;;;;;4986298;28;20692;-80
2022/03/19 13:52:29;;;;;;;2.13;2.03;;;20.80;26.40;;;;;;4951501;28;20471;-79
2022/03/19 13:55:01;;;;;;;4.00;2.20;;;20.20;26.10;;;;;;4986926;28;20436;-81
2022/03/19 13:57:40;;;;;;;1.60;1.50;;;20.20;26.30;;;;;;4955870;28;20424;-78
2022/03/19 14:00:18;;;;;;;2.40;2.30;;;19.30;26.40;;;;;;4986165;28;20456;-79
2022/03/19 14:02:55;;;;;;;1.70;1.60;;;18.80;27.00;;;;;;4960285;28;20527;-80
2022/03/19 14:05:23;;;;;;;2.53;2.43;;;18.80;27.60;;;;;;4947475;28;20466;-80
2022/03/19 14:07:49;;;;;;;1.77;1.77;;;19.00;27.60;;;;;;4974809;28;20436;-80